Time;durP1;ratioP1;P1;durP2;ratioP2;P2;SDS_P1;SDS_P2;PMS_P1;PMS_P2;Temp;Humidity;BMP_temperature;BMP_pressure;BME280_temperature;BME280_humidity;BME280_pressure;Samples;Min_cycle;Max_cycle;Signal;HPM_P1;HPM_P2
2022/09/27 02:23:59;;;;;;;;;;;11.70;99.90;;;;;;5576428;22;19960;-75
2022/09/27 02:26:30;;;;;;;;;;;11.70;99.90;;;;;;5047214;28;20481;-75
2022/09/27 02:28:59;;;;;;;;;;;11.60;99.90;;;;;;5049000;28;19932;-75
2022/09/27 02:31:33;;;;;;;;;;;11.60;99.90;;;;;;5046508;28;20021;-76
2022/09/27 02:34:01;;;;;;;;;;;11.60;99.90;;;;;;5046885;28;19933;-76
2022/09/27 02:36:28;;;;;;;;;;;11.50;99.90;;;;;;5049731;28;20416;-74
2022/09/27 02:38:57;;;;;;;;;;;11.50;99.90;;;;;;5051254;28;19932;-75
2022/09/27 02:41:24;;;;;;;;;;;11.50;99.90;;;;;;5046522;28;19964;-76
2022/09/27 02:43:53;;;;;;;;;;;11.50;99.90;;;;;;5053220;28;19933;-76
2022/09/27 02:46:33;;;;;;;;;;;11.50;99.90;;;;;;5049350;28;19964;-75
2022/09/27 02:49:09;;;;;;;;;;;11.50;99.90;;;;;;5054270;28;20041;-76
2022/09/27 02:51:43;;;;;;;;;;;11.50;99.90;;;;;;5048730;28;19936;-75
2022/09/27 02:54:16;;;;;;;;;;;11.50;99.90;;;;;;5050108;28;19929;-75
2022/09/27 02:57:23;;;;;;;;;;;11.50;99.90;;;;;;5028463;28;19960;-75
2022/09/27 03:00:15;;;;;;;;;;;11.40;99.90;;;;;;5036143;28;19924;-75
2022/09/27 03:03:08;;;;;;;;;;;11.40;99.90;;;;;;5050698;28;19924;-76
2022/09/27 03:05:46;;;;;;;;;;;11.40;99.90;;;;;;5030653;28;19931;-76
2022/09/27 03:08:14;;;;;;;;;;;11.40;99.90;;;;;;5037485;28;20383;-74
2022/09/27 03:10:42;;;;;;;;;;;11.40;99.90;;;;;;5046489;28;19928;-75
2022/09/27 03:13:09;;;;;;;;;;;11.40;99.90;;;;;;5049605;28;20008;-76
2022/09/27 03:15:36;;;;;;;;;;;11.40;99.90;;;;;;5031733;28;20385;-76
2022/09/27 03:18:03;;;;;;;;;;;11.40;99.90;;;;;;5052952;28;20067;-75
2022/09/27 03:20:42;;;;;;;;;;;11.40;99.90;;;;;;5045472;28;19924;-76
2022/09/27 03:23:27;;;;;;;;;;;11.30;99.90;;;;;;5050760;28;19963;-76
2022/09/27 03:25:56;;;;;;;;;;;11.30;99.90;;;;;;5046715;28;20013;-76
2022/09/27 03:28:24;;;;;;;;;;;11.30;99.90;;;;;;5049805;28;19929;-76
2022/09/27 03:30:52;;;;;;;;;;;11.30;99.90;;;;;;5034960;28;19990;-75
2022/09/27 03:33:37;;;;;;;;;;;11.30;99.90;;;;;;5049167;28;20303;-74
2022/09/27 03:36:08;;;;;;;;;;;11.30;99.90;;;;;;5048038;28;19959;-75
2022/09/27 03:38:35;;;;;;;;;;;11.30;99.90;;;;;;5049691;28;19936;-76
2022/09/27 03:41:04;;;;;;;;;;;11.30;99.90;;;;;;5044391;28;19925;-75
2022/09/27 03:43:31;;;;;;;;;;;11.30;99.90;;;;;;5026366;28;19928;-75
2022/09/27 03:46:02;;;;;;;;;;;11.30;99.90;;;;;;5069500;28;20002;-76
2022/09/27 03:48:30;;;;;;;;;;;11.30;99.90;;;;;;5048996;28;20528;-75
2022/09/27 03:50:57;;;;;;;;;;;11.30;99.90;;;;;;5039207;28;19932;-75
2022/09/27 03:53:24;;;;;;;;;;;11.30;99.90;;;;;;5067030;28;20015;-76
2022/09/27 03:55:51;;;;;;;;;;;11.30;99.90;;;;;;5048350;28;19935;-76
2022/09/27 03:58:19;;;;;;;;;;;11.30;99.90;;;;;;5054023;28;19931;-75
2022/09/27 04:00:46;;;;;;;;;;;11.20;99.90;;;;;;5045689;28;19937;-76
2022/09/27 04:03:13;;;;;;;;;;;11.20;99.90;;;;;;5051657;28;19935;-75
2022/09/27 04:05:43;;;;;;;;;;;11.20;99.90;;;;;;5046051;28;20015;-74
2022/09/27 04:08:15;;;;;;;;;;;11.20;99.90;;;;;;5050076;28;19932;-76
2022/09/27 04:10:42;;;;;;;;;;;11.20;99.90;;;;;;5048759;28;20310;-76
2022/09/27 04:13:09;;;;;;;;;;;11.10;99.90;;;;;;5061244;28;19958;-76
2022/09/27 04:15:43;;;;;;;;;;;11.10;99.90;;;;;;5045702;28;20017;-77
2022/09/27 04:18:29;;;;;;;;;;;11.10;99.90;;;;;;5047972;28;20491;-74
2022/09/27 04:21:22;;;;;;;;;;;11.10;99.90;;;;;;5034624;28;19925;-76
2022/09/27 04:23:52;;;;;;;;;;;11.10;99.90;;;;;;5052650;28;20295;-78
2022/09/27 04:26:22;;;;;;;;;;;11.10;99.90;;;;;;5055304;28;20374;-74
2022/09/27 04:28:52;;;;;;;;;;;11.10;99.90;;;;;;5053922;28;19928;-76
2022/09/27 04:31:20;;;;;;;;;;;11.10;99.90;;;;;;5048268;28;19937;-75
2022/09/27 04:33:52;;;;;;;;;;;11.00;99.90;;;;;;5035294;28;19963;-76
2022/09/27 04:36:26;;;;;;;;;;;11.00;99.90;;;;;;5050721;28;19975;-74
2022/09/27 04:39:12;;;;;;;;;;;11.00;99.90;;;;;;5041569;28;19979;-76
2022/09/27 04:41:46;;;;;;;;;;;11.00;99.90;;;;;;5028576;28;20017;-75
2022/09/27 04:44:13;;;;;;;;;;;11.00;99.90;;;;;;5044891;28;20341;-76
2022/09/27 04:46:44;;;;;;;;;;;11.00;99.90;;;;;;5051564;28;19946;-76
2022/09/27 04:49:12;;;;;;;;;;;11.00;99.90;;;;;;5047014;28;19932;-76
2022/09/27 04:51:39;;;;;;;;;;;11.00;99.90;;;;;;5049487;28;19940;-76
2022/09/27 04:54:06;;;;;;;;;;;10.90;99.90;;;;;;5049828;28;19989;-75
2022/09/27 04:56:37;;;;;;;;;;;10.90;99.90;;;;;;5044209;28;19994;-73
2022/09/27 04:59:05;;;;;;;;;;;10.90;99.90;;;;;;5030619;28;20023;-76
2022/09/27 05:01:32;;;;;;;;;;;10.90;99.90;;;;;;5054713;28;19992;-77
2022/09/27 05:04:01;;;;;;;;;;;10.90;99.90;;;;;;5049462;28;20070;-75
2022/09/27 05:06:29;;;;;;;;;;;10.90;99.90;;;;;;5029766;28;20814;-76
2022/09/27 05:09:00;;;;;;;;;;;10.90;99.90;;;;;;5031359;28;19982;-74
2022/09/27 05:11:36;;;;;;;;;;;10.90;99.90;;;;;;5024513;28;19928;-76
2022/09/27 05:14:15;;;;;;;;;;;10.90;99.90;;;;;;5043778;28;20383;-76
2022/09/27 05:17:08;;;;;;;;;;;10.80;99.90;;;;;;5028631;28;19924;-75
2022/09/27 05:19:38;;;;;;;;;;;10.80;99.90;;;;;;5042538;28;20023;-76
2022/09/27 05:22:14;;;;;;;;;;;10.80;99.90;;;;;;5048194;28;19924;-76
2022/09/27 05:24:42;;;;;;;;;;;10.80;99.90;;;;;;5037099;28;19931;-76
2022/09/27 05:27:10;;;;;;;;;;;10.80;99.90;;;;;;5052572;28;20446;-76
2022/09/27 05:29:36;;;;;;;;;;;10.80;99.90;;;;;;5046042;28;19931;-75
2022/09/27 05:32:11;;;;;;;;;;;10.80;99.90;;;;;;5046566;28;19924;-75
2022/09/27 05:34:40;;;;;;;;;;;10.70;99.90;;;;;;5052972;28;20191;-76
2022/09/27 05:37:07;;;;;;;;;;;10.70;99.90;;;;;;5051260;28;20090;-74
2022/09/27 05:39:38;;;;;;;;;;;10.70;99.90;;;;;;5055510;28;19963;-75
2022/09/27 05:42:07;;;;;;;;;;;10.70;99.90;;;;;;5057302;28;20391;-74
2022/09/27 05:44:34;;;;;;;;;;;10.70;99.90;;;;;;5054287;28;20010;-75
2022/09/27 05:47:03;;;;;;;;;;;10.70;99.90;;;;;;5057094;28;19935;-75
2022/09/27 05:49:31;;;;;;;;;;;10.70;99.90;;;;;;5058930;28;19943;-76
2022/09/27 05:51:59;;;;;;;;;;;10.70;99.90;;;;;;5051245;28;19940;-76
2022/09/27 05:54:28;;;;;;;;;;;10.60;99.90;;;;;;5037847;28;20033;-76
2022/09/27 05:56:58;;;;;;;;;;;10.60;99.90;;;;;;5039512;28;20029;-76
2022/09/27 05:59:35;;;;;;;;;;;10.60;99.90;;;;;;5053541;28;19939;-76
2022/09/27 06:02:22;;;;;;;;;;;10.60;99.90;;;;;;5042690;28;19932;-76
2022/09/27 06:04:53;;;;;;;;;;;10.60;99.90;;;;;;5055863;28;19925;-76
2022/09/27 06:07:40;;;;;;;;;;;10.60;99.90;;;;;;5056490;28;19931;-76
2022/09/27 06:10:13;;;;;;;;;;;10.60;99.90;;;;;;5053520;28;19928;-74
2022/09/27 06:12:40;;;;;;;;;;;10.60;99.90;;;;;;5053946;28;19929;-74
2022/09/27 06:15:17;;;;;;;;;;;10.60;99.90;;;;;;5054202;28;19936;-75
2022/09/27 06:17:45;;;;;;;;;;;10.60;99.90;;;;;;5051771;28;19928;-74
2022/09/27 06:20:19;;;;;;;;;;;10.60;99.90;;;;;;5048389;28;19933;-76
2022/09/27 06:22:48;;;;;;;;;;;10.50;99.90;;;;;;5053201;28;19924;-76
2022/09/27 06:25:15;;;;;;;;;;;10.50;99.90;;;;;;5051860;28;19994;-76
2022/09/27 06:28:08;;;;;;;;;;;10.50;99.90;;;;;;5051457;28;19935;-75
2022/09/27 06:30:38;;;;;;;;;;;10.50;99.90;;;;;;5055240;28;19940;-75
2022/09/27 06:33:12;;;;;;;;;;;10.50;99.90;;;;;;5055895;28;20026;-75
2022/09/27 06:35:41;;;;;;;;;;;10.50;99.90;;;;;;5057205;28;19936;-74
2022/09/27 06:38:10;;;;;;;;;;;10.40;99.90;;;;;;5052163;28;20296;-76
2022/09/27 06:40:45;;;;;;;;;;;10.40;99.90;;;;;;5061378;28;20387;-75
2022/09/27 06:43:23;;;;;;;;;;;10.40;99.90;;;;;;5055631;28;19933;-76
2022/09/27 06:46:12;;;;;;;;;;;10.40;99.90;;;;;;5048001;28;19935;-75
2022/09/27 06:49:03;;;;;;;;;;;10.40;99.90;;;;;;5036515;28;19933;-76
2022/09/27 06:51:30;;;;;;;;;;;10.40;99.90;;;;;;5053355;28;20189;-76
2022/09/27 06:53:58;;;;;;;;;;;10.40;99.90;;;;;;5052825;28;19924;-74
2022/09/27 06:56:26;;;;;;;;;;;10.40;99.90;;;;;;5062126;28;19938;-75
2022/09/27 07:01:44;;;;;;;;;;;10.40;99.90;;;;;;5051347;28;19928;-75
2022/09/27 07:04:26;;;;;;;;;;;10.30;99.90;;;;;;5047641;28;20777;-75
2022/09/27 07:07:05;;;;;;;;;;;10.30;99.90;;;;;;5050029;28;19939;-74
2022/09/27 07:09:39;;;;;;;;;;;10.30;99.90;;;;;;5052155;28;19933;-75
2022/09/27 07:12:06;;;;;;;;;;;10.30;99.90;;;;;;5015149;28;21635;-74
2022/09/27 07:14:34;;;;;;;;;;;10.30;99.90;;;;;;5053363;28;20433;-74
2022/09/27 07:17:01;;;;;;;;;;;10.30;99.90;;;;;;5046793;28;20027;-76
2022/09/27 07:19:33;;;;;;;;;;;10.30;99.90;;;;;;5035407;28;20761;-75
2022/09/27 07:22:01;;;;;;;;;;;10.20;99.90;;;;;;5033249;28;20311;-75
2022/09/27 07:24:29;;;;;;;;;;;10.30;99.90;;;;;;5037980;28;19925;-76
2022/09/27 07:26:57;;;;;;;;;;;10.20;99.90;;;;;;5049363;28;20377;-76
2022/09/27 07:29:25;;;;;;;;;;;10.20;99.90;;;;;;5042365;28;19932;-76
2022/09/27 07:31:53;;;;;;;;;;;10.20;99.90;;;;;;5047602;28;19936;-76
2022/09/27 07:34:20;;;;;;;;;;;10.20;99.90;;;;;;5049608;28;20276;-75
2022/09/27 07:36:47;;;;;;;;;;;10.20;99.90;;;;;;5044532;28;20443;-75
2022/09/27 07:39:14;;;;;;;;;;;10.20;99.90;;;;;;5043186;28;20310;-74
2022/09/27 07:41:43;;;;;;;;;;;10.20;99.90;;;;;;5070233;28;19935;-75
2022/09/27 07:44:15;;;;;;;;;;;10.20;99.90;;;;;;5057049;28;20448;-75
2022/09/27 07:47:02;;;;;;;;;;;10.20;99.90;;;;;;5035717;28;20418;-75
2022/09/27 07:49:49;;;;;;;;;;;10.20;99.90;;;;;;5050290;28;19932;-76
2022/09/27 07:52:30;;;;;;;;;;;10.20;99.90;;;;;;5049852;28;19940;-75
2022/09/27 07:55:26;;;;;;;;;;;10.20;99.90;;;;;;5044636;28;19932;-75
2022/09/27 07:58:06;;;;;;;;;;;10.20;99.90;;;;;;5051084;28;20931;-76
2022/09/27 08:00:35;;;;;;;;;;;10.20;99.90;;;;;;5044197;28;20482;-75
2022/09/27 08:03:04;;;;;;;;;;;10.20;99.90;;;;;;5064402;28;20274;-74
2022/09/27 08:05:31;;;;;;;;;;;10.20;99.90;;;;;;5047339;28;19928;-75
2022/09/27 08:07:58;;;;;;;;;;;10.20;99.90;;;;;;5049528;28;19925;-75
2022/09/27 08:10:29;;;;;;;;;;;10.20;99.90;;;;;;5043383;28;19931;-74
2022/09/27 08:12:56;;;;;;;;;;;10.20;99.90;;;;;;5046093;28;20530;-75
2022/09/27 08:15:23;;;;;;;;;;;10.20;99.90;;;;;;5046361;28;19939;-76
2022/09/27 08:17:53;;;;;;;;;;;10.20;99.90;;;;;;5051711;28;20356;-75
2022/09/27 08:20:42;;;;;;;;;;;10.20;99.90;;;;;;5046936;28;19932;-75
2022/09/27 08:23:28;;;;;;;;;;;10.20;99.90;;;;;;5045890;28;20026;-75
2022/09/27 08:26:10;;;;;;;;;;;10.20;99.90;;;;;;5045133;28;20018;-75
2022/09/27 08:28:51;;;;;;;;;;;10.20;99.90;;;;;;5046064;28;19928;-75
2022/09/27 08:31:22;;;;;;;;;;;10.20;99.90;;;;;;5045111;28;20463;-75
2022/09/27 08:33:51;;;;;;;;;;;10.20;99.90;;;;;;5043654;28;19941;-75
2022/09/27 08:36:20;;;;;;;;;;;10.20;99.90;;;;;;5052156;28;19943;-75
2022/09/27 08:38:48;;;;;;;;;;;10.20;99.90;;;;;;5132758;22;19940;-74
2022/09/27 08:43:46;;;;;;;;;;;10.20;99.90;;;;;;5027753;28;19925;-76
2022/09/27 08:46:20;;;;;;;;;;;10.20;99.90;;;;;;5017575;28;19945;-77
2022/09/27 08:48:49;;;;;;;;;;;10.20;99.90;;;;;;5012888;28;20421;-77
2022/09/27 08:51:21;;;;;;;;;;;10.20;99.90;;;;;;5028685;28;19987;-76
2022/09/27 08:53:51;;;;;;;;;;;10.20;99.90;;;;;;5019825;28;19932;-76
2022/09/27 08:56:20;;;;;;;;;;;10.20;99.90;;;;;;5015671;28;20019;-77
2022/09/27 08:58:51;;;;;;;;;;;10.20;99.90;;;;;;5013500;28;20341;-78
2022/09/27 09:01:22;;;;;;;;;;;10.20;99.90;;;;;;5014990;28;19925;-76
2022/09/27 09:04:11;;;;;;;;;;;10.20;99.90;;;;;;5009618;28;19932;-77
2022/09/27 09:06:43;;;;;;;;;;;10.20;99.90;;;;;;5019367;28;20121;-76
2022/09/27 09:09:15;;;;;;;;;;;10.20;99.90;;;;;;5011404;28;20324;-77
2022/09/27 09:14:46;;;;;;;;;;;10.20;99.90;;;;;;5007981;28;19929;-76
2022/09/27 09:17:20;;;;;;;;;;;10.20;99.90;;;;;;5018324;28;19951;-77
2022/09/27 09:20:15;;;;;;;;;;;10.20;99.90;;;;;;5008268;28;20143;-78
2022/09/27 09:23:04;;;;;;;;;;;10.30;99.90;;;;;;5016168;28;19925;-77
2022/09/27 09:25:35;;;;;;;;;;;10.30;99.90;;;;;;5016421;28;19991;-79
2022/09/27 09:28:07;;;;;;;;;;;10.30;99.90;;;;;;5016993;28;19925;-78
2022/09/27 09:30:41;;;;;;;;;;;10.20;99.90;;;;;;5014057;28;19925;-78
2022/09/27 09:33:14;;;;;;;;;;;10.30;99.90;;;;;;5024324;28;19937;-77
2022/09/27 09:35:44;;;;;;;;;;;10.30;99.90;;;;;;5019735;28;20399;-77
2022/09/27 09:38:15;;;;;;;;;;;10.30;99.90;;;;;;5018231;28;19929;-79
2022/09/27 09:40:46;;;;;;;;;;;10.30;99.90;;;;;;5029425;28;20039;-78
2022/09/27 09:43:16;;;;;;;;;;;10.30;99.90;;;;;;5023468;28;19939;-78
2022/09/27 09:45:45;;;;;;;;;;;10.30;99.90;;;;;;5025131;28;20217;-77
2022/09/27 09:48:16;;;;;;;;;;;10.30;99.90;;;;;;5020637;28;20989;-76
2022/09/27 09:50:45;;;;;;;;;;;10.30;99.90;;;;;;5024743;28;19936;-78
2022/09/27 09:53:16;;;;;;;;;;;10.30;99.90;;;;;;5020298;28;20587;-78
2022/09/27 09:55:47;;;;;;;;;;;10.40;99.90;;;;;;5014202;28;19929;-78
2022/09/27 09:58:19;;;;;;;;;;;10.40;99.90;;;;;;5023215;28;19931;-77
2022/09/27 10:00:50;;;;;;;;;;;10.40;99.90;;;;;;5038808;28;19924;-77
2022/09/27 10:03:18;;;;;;;;;;;10.40;99.90;;;;;;5022025;28;19925;-77
2022/09/27 10:05:45;;;;;;;;;;;10.40;99.90;;;;;;5025359;28;19929;-78
2022/09/27 10:08:16;;;;;;;;;;;10.40;99.90;;;;;;5041473;28;20368;-77
2022/09/27 10:10:45;;;;;;;;;;;10.40;99.90;;;;;;5016439;28;20408;-77
2022/09/27 10:13:33;;;;;;;;;;;10.40;99.90;;;;;;5042128;28;19931;-79
2022/09/27 10:16:03;;;;;;;;;;;10.40;99.90;;;;;;5024242;28;20237;-79
2022/09/27 10:18:32;;;;;;;;;;;10.40;99.90;;;;;;5027163;28;20006;-77
2022/09/27 10:21:01;;;;;;;;;;;10.30;99.90;;;;;;5037216;28;19936;-77
2022/09/27 10:23:28;;;;;;;;;;;10.30;99.90;;;;;;5021947;28;19965;-77
2022/09/27 10:26:07;;;;;;;;;;;10.30;99.90;;;;;;5034972;28;19932;-79
2022/09/27 10:28:46;;;;;;;;;;;10.30;99.90;;;;;;5021714;28;19933;-78
2022/09/27 10:31:16;;;;;;;;;;;10.30;99.90;;;;;;5023128;28;19929;-77
2022/09/27 10:34:18;;;;;;;;;;;10.30;99.90;;;;;;5024842;28;20343;-77
2022/09/27 10:37:01;;;;;;;;;;;10.30;99.90;;;;;;5020519;28;20300;-77
2022/09/27 10:39:28;;;;;;;;;;;10.30;99.90;;;;;;5021208;28;20025;-77
2022/09/27 10:41:58;;;;;;;;;;;10.30;99.90;;;;;;5022540;28;19940;-77
2022/09/27 10:44:39;;;;;;;;;;;10.30;99.90;;;;;;5026148;28;19928;-77
2022/09/27 10:47:24;;;;;;;;;;;10.20;99.90;;;;;;5019866;28;20394;-77
2022/09/27 10:50:03;;;;;;;;;;;10.20;99.90;;;;;;5036592;28;19933;-77
2022/09/27 10:52:49;;;;;;;;;;;10.20;99.90;;;;;;5020546;28;20410;-78
2022/09/27 10:55:23;;;;;;;;;;;10.20;99.90;;;;;;5021777;28;19937;-77
2022/09/27 10:57:54;;;;;;;;;;;10.20;99.90;;;;;;5020640;28;20059;-77
2022/09/27 11:00:23;;;;;;;;;;;10.20;99.90;;;;;;5023658;28;19971;-77
2022/09/27 11:02:52;;;;;;;;;;;10.20;99.90;;;;;;5037837;28;19930;-77
2022/09/27 11:05:30;;;;;;;;;;;10.20;99.90;;;;;;5018276;28;19929;-77
2022/09/27 11:07:58;;;;;;;;;;;10.20;99.90;;;;;;5044683;28;19928;-77
2022/09/27 11:10:45;;;;;;;;;;;10.20;99.90;;;;;;5021669;28;20012;-77
2022/09/27 11:13:15;;;;;;;;;;;10.20;99.90;;;;;;5021582;28;19931;-78
2022/09/27 11:15:53;;;;;;;;;;;10.20;99.90;;;;;;5024541;28;19932;-79
2022/09/27 11:18:25;;;;;;;;;;;10.20;99.90;;;;;;5023448;28;19947;-77
2022/09/27 11:21:02;;;;;;;;;;;10.20;99.90;;;;;;5040433;28;19964;-77
2022/09/27 11:23:34;;;;;;;;;;;10.20;99.90;;;;;;5021443;28;19936;-78
2022/09/27 11:26:10;;;;;;;;;;;10.20;99.90;;;;;;5022233;28;20375;-78
2022/09/27 11:28:43;;;;;;;;;;;10.20;99.90;;;;;;5031736;28;20358;-77
2022/09/27 11:31:23;;;;;;;;;;;10.20;99.90;;;;;;5023193;28;19929;-77
2022/09/27 11:34:19;;;;;;;;;;;10.20;99.90;;;;;;5029078;28;20304;-77
2022/09/27 11:36:52;;;;;;;;;;;10.20;99.90;;;;;;5019883;28;20387;-78
2022/09/27 11:39:22;;;;;;;;;;;10.30;99.90;;;;;;5023269;28;19939;-79
2022/09/27 11:41:57;;;;;;;;;;;10.20;99.90;;;;;;5027615;28;19924;-79
2022/09/27 11:44:40;;;;;;;;;;;10.30;99.90;;;;;;5037748;28;20011;-79
2022/09/27 11:47:10;;;;;;;;;;;10.30;99.90;;;;;;5023638;28;19940;-77
2022/09/27 11:54:49;;;;;;;;;;;10.30;99.90;;;;;;5025222;28;20410;-75
2022/09/27 11:57:18;;;;;;;;;;;10.40;99.90;;;;;;5017208;28;20428;-76
2022/09/27 12:00:01;;;;;;;;;;;10.40;99.90;;;;;;5004260;28;19925;-75
2022/09/27 12:02:38;;;;;;;;;;;10.40;99.90;;;;;;5021874;28;19992;-77
2022/09/27 12:05:20;;;;;;;;;;;10.50;99.90;;;;;;5024097;28;19925;-76
2022/09/27 12:08:02;;;;;;;;;;;10.50;99.90;;;;;;5024237;28;19925;-76
2022/09/27 12:10:30;;;;;;;;;;;10.60;99.90;;;;;;5034016;28;19979;-75
2022/09/27 12:12:58;;;;;;;;;;;10.60;99.90;;;;;;5028758;28;19932;-75
2022/09/27 12:15:32;;;;;;;;;;;10.60;99.90;;;;;;5019686;28;20369;-78
2022/09/27 12:18:05;;;;;;;;;;;10.60;99.90;;;;;;5032886;28;19933;-78
2022/09/27 12:20:35;;;;;;;;;;;10.60;99.90;;;;;;5033946;28;19933;-80
2022/09/27 12:23:04;;;;;;;;;;;10.60;99.90;;;;;;5032080;28;19932;-78
2022/09/27 12:25:55;;;;;;;;;;;10.60;99.90;;;;;;5038934;28;20011;-77
2022/09/27 12:28:33;;;;;;;;;;;10.70;99.90;;;;;;5036049;28;19928;-78
2022/09/27 12:31:05;;;;;;;;;;;10.70;99.90;;;;;;5020446;28;19956;-75
2022/09/27 12:33:34;;;;;;;;;;;10.70;99.90;;;;;;5024898;28;19931;-76
2022/09/27 12:36:04;;;;;;;;;;;10.70;99.90;;;;;;5039421;28;19951;-76
2022/09/27 12:38:35;;;;;;;;;;;10.70;99.90;;;;;;5037546;28;19925;-76
2022/09/27 12:41:05;;;;;;;;;;;10.80;99.90;;;;;;5039777;28;19925;-75
2022/09/27 12:43:42;;;;;;;;;;;10.80;99.90;;;;;;5032549;28;19940;-75
2022/09/27 12:46:21;;;;;;;;;;;10.80;99.90;;;;;;5029087;28;19936;-75
2022/09/27 12:48:52;;;;;;;;;;;10.80;99.90;;;;;;5021490;28;20395;-76
2022/09/27 12:51:20;;;;;;;;;;;10.80;99.90;;;;;;5036215;28;20418;-76
2022/09/27 12:53:57;;;;;;;;;;;10.80;99.90;;;;;;5028035;28;20023;-75
2022/09/27 12:56:32;;;;;;;;;;;10.90;99.90;;;;;;5031464;28;20012;-76
2022/09/27 12:59:09;;;;;;;;;;;11.00;99.90;;;;;;5029651;28;19925;-76
2022/09/27 13:01:44;;;;;;;;;;;11.00;99.90;;;;;;5030790;28;20058;-76
2022/09/27 13:04:20;;;;;;;;;;;11.00;99.90;;;;;;5032217;28;20019;-75
2022/09/27 13:07:03;;;;;;;;;;;11.00;99.90;;;;;;5036214;28;19940;-76
2022/09/27 13:09:49;;;;;;;;;;;11.00;99.90;;;;;;5027878;28;19925;-76
2022/09/27 13:12:18;;;;;;;;;;;11.00;99.90;;;;;;5030968;28;20002;-77
2022/09/27 13:15:00;;;;;;;;;;;11.10;99.90;;;;;;5033040;28;19932;-76
2022/09/27 13:17:48;;;;;;;;;;;11.10;99.90;;;;;;5033520;28;21218;-77
2022/09/27 13:20:48;;;;;;;;;;;11.10;99.90;;;;;;5026355;28;20367;-76
2022/09/27 13:23:58;;;;;;;;;;;11.10;99.90;;;;;;5034587;28;19931;-76
2022/09/27 13:26:47;;;;;;;;;;;11.10;99.90;;;;;;5032636;28;19932;-75
2022/09/27 13:29:26;;;;;;;;;;;11.10;99.90;;;;;;5050443;28;19931;-76
2022/09/27 13:32:21;;;;;;;;;;;11.10;99.90;;;;;;5030360;28;20010;-76
2022/09/27 13:35:12;;;;;;;;;;;11.10;99.90;;;;;;5031315;28;19935;-76
2022/09/27 13:37:47;;;;;;;;;;;11.10;99.90;;;;;;5049854;28;19924;-75
2022/09/27 13:40:23;;;;;;;;;;;11.10;99.90;;;;;;5026241;28;19968;-75
2022/09/27 13:43:33;;;;;;;;;;;11.10;99.90;;;;;;5020068;28;20240;-75
2022/09/27 13:46:06;;;;;;;;;;;11.10;99.90;;;;;;5034950;28;19932;-74
2022/09/27 13:48:46;;;;;;;;;;;11.10;99.90;;;;;;5033405;28;20396;-75
2022/09/27 13:51:17;;;;;;;;;;;11.10;99.90;;;;;;5024530;28;19925;-75
2022/09/27 13:53:55;;;;;;;;;;;11.20;99.90;;;;;;5038948;28;19925;-76
2022/09/27 13:56:37;;;;;;;;;;;11.10;99.90;;;;;;5030733;28;19972;-76
2022/09/27 13:59:09;;;;;;;;;;;11.10;99.90;;;;;;5041924;28;19928;-75
2022/09/27 14:02:05;;;;;;;;;;;11.10;99.90;;;;;;5028747;28;19924;-76
2022/09/27 14:04:37;;;;;;;;;;;11.10;99.90;;;;;;5053209;28;19925;-76
2022/09/27 14:07:04;;;;;;;;;;;11.10;99.90;;;;;;5036386;28;20239;-77
2022/09/27 14:09:35;;;;;;;;;;;11.10;99.90;;;;;;5039422;28;19967;-76
2022/09/27 14:12:18;;;;;;;;;;;11.10;99.90;;;;;;5040390;28;19924;-76
2022/09/27 14:14:46;;;;;;;;;;;11.10;99.90;;;;;;5059122;28;20466;-76
2022/09/27 14:17:14;;;;;;;;;;;11.10;99.90;;;;;;5033998;28;19929;-76
2022/09/27 14:19:43;;;;;;;;;;;11.10;99.90;;;;;;5041805;28;20350;-76
2022/09/27 14:22:12;;;;;;;;;;;11.10;99.90;;;;;;5037788;28;19925;-76
2022/09/27 14:24:52;;;;;;;;;;;11.10;99.90;;;;;;5036065;28;19933;-76
2022/09/27 14:27:27;;;;;;;;;;;11.10;99.90;;;;;;5054887;28;19971;-77
2022/09/27 14:30:01;;;;;;;;;;;11.10;99.90;;;;;;5036837;28;19931;-76
2022/09/27 14:32:33;;;;;;;;;;;11.20;99.90;;;;;;5052291;28;20032;-78
2022/09/27 14:35:05;;;;;;;;;;;11.20;99.90;;;;;;5055817;28;19933;-77
2022/09/27 14:37:31;;;;;;;;;;;11.20;99.90;;;;;;5040252;28;19929;-76
2022/09/27 14:40:18;;;;;;;;;;;11.20;99.90;;;;;;5032786;28;20284;-76
2022/09/27 14:42:47;;;;;;;;;;;11.20;99.90;;;;;;5034167;28;19972;-77
2022/09/27 14:45:18;;;;;;;;;;;11.20;99.90;;;;;;5040320;28;19929;-75
2022/09/27 14:47:45;;;;;;;;;;;11.20;99.90;;;;;;5037784;28;20003;-75
2022/09/27 14:50:17;;;;;;;;;;;11.20;99.90;;;;;;5036577;28;19925;-74
2022/09/27 14:52:47;;;;;;;;;;;11.20;99.90;;;;;;5041023;28;20441;-76
2022/09/27 14:55:18;;;;;;;;;;;11.20;99.90;;;;;;5025684;28;19936;-74
2022/09/27 14:57:46;;;;;;;;;;;11.20;99.90;;;;;;5055431;28;19931;-74
2022/09/27 15:00:16;;;;;;;;;;;11.20;99.90;;;;;;5049205;28;19932;-75
2022/09/27 15:02:43;;;;;;;;;;;11.20;99.90;;;;;;5052040;28;19933;-76
2022/09/27 15:05:16;;;;;;;;;;;11.20;99.90;;;;;;5057903;28;19954;-76
2022/09/27 15:07:46;;;;;;;;;;;11.20;99.90;;;;;;5061517;28;20030;-76
2022/09/27 15:10:15;;;;;;;;;;;11.20;99.90;;;;;;5044187;28;20130;-76
2022/09/27 15:12:46;;;;;;;;;;;11.20;99.90;;;;;;5065572;28;20041;-77
2022/09/27 15:15:15;;;;;;;;;;;11.20;99.90;;;;;;5043228;28;19990;-76
2022/09/27 15:17:46;;;;;;;;;;;11.20;99.90;;;;;;5040833;28;19924;-76
2022/09/27 15:20:20;;;;;;;;;;;11.20;99.90;;;;;;5061435;28;19928;-76
2022/09/27 15:22:55;;;;;;;;;;;11.20;99.90;;;;;;5068289;28;20271;-76
2022/09/27 15:25:31;;;;;;;;;;;11.20;99.90;;;;;;5059746;28;20418;-76
2022/09/27 15:28:01;;;;;;;;;;;11.20;99.90;;;;;;5061601;28;19925;-75
2022/09/27 15:30:30;;;;;;;;;;;11.20;99.90;;;;;;5062819;28;20011;-75
2022/09/27 15:32:57;;;;;;;;;;;11.20;99.90;;;;;;5063037;28;19924;-76
2022/09/27 15:35:26;;;;;;;;;;;11.20;99.90;;;;;;5057510;28;19924;-76
2022/09/27 15:38:09;;;;;;;;;;;11.20;99.90;;;;;;5064136;28;19925;-77
2022/09/27 15:41:08;;;;;;;;;;;11.20;99.90;;;;;;5058171;28;20045;-75
2022/09/27 15:43:39;;;;;;;;;;;11.20;99.90;;;;;;5052980;28;19928;-77
2022/09/27 15:46:21;;;;;;;;;;;11.20;99.90;;;;;;5059976;28;20010;-76
2022/09/27 15:49:18;;;;;;;;;;;11.10;99.90;;;;;;5058930;28;19963;-75
2022/09/27 15:51:45;;;;;;;;;;;11.10;99.90;;;;;;5060477;28;19931;-75
2022/09/27 15:54:12;;;;;;;;;;;11.10;99.90;;;;;;5057180;28;19932;-75
2022/09/27 15:56:39;;;;;;;;;;;11.10;99.90;;;;;;5062995;28;19936;-76
2022/09/27 15:59:12;;;;;;;;;;;11.10;99.90;;;;;;5037675;28;19991;-76
2022/09/27 16:01:39;;;;;;;;;;;11.10;99.90;;;;;;5047749;28;20405;-76
2022/09/27 16:04:08;;;;;;;;;;;11.10;99.90;;;;;;5052764;28;19936;-75
2022/09/27 16:06:35;;;;;;;;;;;11.10;99.90;;;;;;5058185;28;20461;-75
2022/09/27 16:09:01;;;;;;;;;;;11.10;99.90;;;;;;5058070;28;19932;-76
2022/09/27 16:11:28;;;;;;;;;;;11.10;99.90;;;;;;5058631;28;19960;-75
2022/09/27 16:13:55;;;;;;;;;;;11.10;99.90;;;;;;5059002;28;19928;-75
2022/09/27 16:16:23;;;;;;;;;;;11.10;99.90;;;;;;5041799;28;19968;-76
2022/09/27 16:18:52;;;;;;;;;;;11.10;99.90;;;;;;5054169;28;21356;-75
2022/09/27 16:21:19;;;;;;;;;;;11.10;99.90;;;;;;5053211;28;20014;-75
2022/09/27 16:23:47;;;;;;;;;;;11.00;99.90;;;;;;5053519;28;20444;-75
2022/09/27 16:26:13;;;;;;;;;;;11.00;99.90;;;;;;5058224;28;19968;-77
2022/09/27 16:28:40;;;;;;;;;;;11.00;99.90;;;;;;5060853;28;19932;-77
2022/09/27 16:31:08;;;;;;;;;;;11.00;99.90;;;;;;5060082;28;20714;-77
2022/09/27 16:33:43;;;;;;;;;;;11.00;99.90;;;;;;5049522;28;20411;-75
2022/09/27 16:36:15;;;;;;;;;;;11.00;99.90;;;;;;5057332;28;20341;-75
2022/09/27 16:38:49;;;;;;;;;;;11.00;99.90;;;;;;5056849;28;19924;-76
2022/09/27 16:41:16;;;;;;;;;;;10.90;99.90;;;;;;5035576;28;19926;-76
2022/09/27 16:43:44;;;;;;;;;;;11.00;99.90;;;;;;5054623;28;19935;-76
2022/09/27 16:46:13;;;;;;;;;;;10.90;99.90;;;;;;5056905;28;19935;-77
2022/09/27 16:48:41;;;;;;;;;;;10.90;99.90;;;;;;5040140;28;20335;-77
2022/09/27 16:53:56;;;;;;;;;;;10.90;99.90;;;;;;5059951;28;19955;-76
2022/09/27 16:56:22;;;;;;;;;;;10.90;99.90;;;;;;5066394;28;19925;-75
2022/09/27 16:58:49;;;;;;;;;;;10.90;99.90;;;;;;5060280;28;19991;-77
2022/09/27 17:01:16;;;;;;;;;;;10.90;99.90;;;;;;5041348;28;19924;-75
2022/09/27 17:03:48;;;;;;;;;;;10.90;99.90;;;;;;5042418;28;19932;-75
2022/09/27 17:06:15;;;;;;;;;;;10.90;99.90;;;;;;5056686;28;19939;-76
2022/09/27 17:08:42;;;;;;;;;;;10.80;99.90;;;;;;5053005;28;20019;-76
2022/09/27 17:11:11;;;;;;;;;;;10.80;99.90;;;;;;5035402;28;20367;-76
2022/09/27 17:13:38;;;;;;;;;;;10.80;99.90;;;;;;5056542;28;20446;-75
2022/09/27 17:16:05;;;;;;;;;;;10.80;99.90;;;;;;5059687;28;19975;-76
2022/09/27 17:18:32;;;;;;;;;;;10.80;99.90;;;;;;5058408;28;20305;-76
2022/09/27 17:21:04;;;;;;;;;;;10.70;99.90;;;;;;5059436;28;20413;-77
2022/09/27 17:23:31;;;;;;;;;;;10.70;99.90;;;;;;5051138;28;20442;-76
2022/09/27 17:26:05;;;;;;;;;;;10.70;99.90;;;;;;5053209;28;19925;-76
2022/09/27 17:28:32;;;;;;;;;;;10.70;99.90;;;;;;5063294;28;19952;-76
2022/09/27 17:31:07;;;;;;;;;;;10.70;99.90;;;;;;5062101;28;19981;-77